Time;durP1;ratioP1;P1;durP2;ratioP2;P2;SDS_P1;SDS_P2;PMS_P1;PMS_P2;Temp;Humidity;BMP_temperature;BMP_pressure;BME280_temperature;BME280_humidity;BME280_pressure;Samples;Min_cycle;Max_cycle;Signal;HPM_P1;HPM_P2
2021/07/15 00:00:55;;;;;;;4.18;3.78;;;;;;;23.21;64.74;100963.97;6114425;28;20237;-58
2021/07/15 00:04:17;;;;;;;5.45;3.58;;;;;;;22.98;65.33;100955.53;6116685;28;20233;-58
2021/07/15 00:07:39;;;;;;;3.53;3.22;;;;;;;22.58;67.21;100956.97;6129569;28;20239;-58
2021/07/15 00:11:05;;;;;;;3.90;3.58;;;;;;;22.65;66.82;100962.81;6106644;28;20228;-57
2021/07/15 00:14:27;;;;;;;4.20;3.80;;;;;;;22.93;65.46;100948.78;6107447;28;20240;-56
2021/07/15 00:17:48;;;;;;;4.38;3.55;;;;;;;22.74;66.52;100960.47;6107905;28;20232;-56
2021/07/15 00:21:13;;;;;;;5.05;3.75;;;;;;;23.32;64.85;100971.28;6112642;28;20236;-58
2021/07/15 00:24:34;;;;;;;4.82;4.35;;;;;;;22.86;65.85;100961.56;6128141;28;20240;-58
2021/07/15 00:27:55;;;;;;;4.00;3.70;;;;;;;22.87;65.72;100957.09;6109944;28;20427;-58
2021/07/15 00:31:16;;;;;;;4.38;3.97;;;;;;;23.06;65.28;100954.25;6106608;28;20534;-57
2021/07/15 00:34:37;;;;;;;4.30;3.85;;;;;;;23.00;65.11;100948.31;6110202;28;20240;-58
2021/07/15 00:37:59;;;;;;;3.78;3.03;;;;;;;22.80;66.01;100930.06;6107340;28;20584;-58
2021/07/15 00:41:20;;;;;;;2.53;2.38;;;;;;;23.27;64.33;100934.38;6111770;28;20232;-59
2021/07/15 00:44:41;;;;;;;3.13;2.85;;;;;;;22.63;66.48;100927.53;6110267;28;20624;-58
2021/07/15 00:48:03;;;;;;;3.63;2.95;;;;;;;22.57;66.82;100924.28;6110625;28;20231;-57
2021/07/15 00:51:25;;;;;;;3.13;2.60;;;;;;;22.87;66.00;100919.94;6113226;28;20232;-57
2021/07/15 00:54:48;;;;;;;4.03;2.72;;;;;;;23.12;64.76;100903.41;6114574;28;20240;-56
2021/07/15 00:58:11;;;;;;;3.03;2.75;;;;;;;23.00;64.74;100910.28;6108161;28;20507;-58
2021/07/15 01:01:32;;;;;;;3.00;2.47;;;;;;;23.12;64.28;100914.03;6114034;28;20589;-57
2021/07/15 01:04:53;;;;;;;2.75;1.90;;;;;;;23.23;63.66;100916.06;6116119;28;20376;-58
2021/07/15 01:08:16;;;;;;;2.90;2.67;;;;;;;22.87;64.71;100917.28;6112217;28;20232;-58
2021/07/15 01:11:46;;;;;;;3.63;3.20;;;;;;;22.65;64.98;100921.19;6120731;28;20329;-58
2021/07/15 01:15:10;;;;;;;3.75;2.05;;;;;;;22.85;64.76;100922.66;6113609;28;20520;-58
2021/07/15 01:18:42;;;;;;;3.60;2.53;;;;;;;22.85;65.07;100927.97;6109453;28;20634;-57
2021/07/15 01:22:08;;;;;;;3.08;2.88;;;;;;;22.63;65.32;100922.22;6115854;28;20227;-58
2021/07/15 01:26:01;;;;;;;2.60;2.38;;;;;;;22.50;65.36;100928.22;6113607;28;20843;-57
2021/07/15 01:29:32;;;;;;;2.45;2.00;;;;;;;22.76;65.17;100936.47;6103345;28;20227;-57
2021/07/15 01:33:02;;;;;;;3.15;2.08;;;;;;;22.69;65.42;100943.94;6114377;28;20342;-58
2021/07/15 01:36:24;;;;;;;4.10;2.03;;;;;;;22.40;66.31;100949.13;6108641;28;20232;-58
2021/07/15 01:39:49;;;;;;;4.10;2.05;;;;;;;22.65;65.04;100942.41;6112136;28;20534;-58
2021/07/15 01:43:16;;;;;;;2.42;2.20;;;;;;;22.55;65.43;100942.09;6114689;28;20354;-57
2021/07/15 01:46:37;;;;;;;3.42;2.40;;;;;;;22.36;66.14;100938.78;6109606;28;20239;-58
2021/07/15 01:50:01;;;;;;;2.53;2.30;;;;;;;22.14;66.87;100947.91;6111419;28;20231;-57
2021/07/15 01:53:21;;;;;;;3.10;2.45;;;;;;;21.75;68.63;100954.44;6098673;28;20236;-58
2021/07/15 01:56:43;;;;;;;2.17;1.98;;;;;;;21.53;69.87;100959.16;6090333;28;20228;-55
2021/07/15 02:00:06;;;;;;;3.45;2.58;;;;;;;22.05;68.05;100955.53;6107611;28;20877;-57
2021/07/15 02:03:29;;;;;;;2.33;2.13;;;;;;;21.52;69.80;100955.69;6109411;28;20233;-58
2021/07/15 02:06:54;;;;;;;2.92;2.17;;;;;;;21.31;70.25;100957.63;6111403;28;20264;-58
2021/07/15 02:10:19;;;;;;;15.20;2.50;;;;;;;21.68;69.41;100968.97;6107166;28;20590;-58
2021/07/15 02:13:43;;;;;;;2.60;2.15;;;;;;;21.85;68.43;100975.13;6101436;28;20248;-58
2021/07/15 02:17:11;;;;;;;5.07;2.80;;;;;;;21.63;68.68;100974.53;6113132;28;20237;-58
2021/07/15 02:20:33;;;;;;;2.20;2.00;;;;;;;21.47;69.34;100984.19;6112792;28;20619;-58
2021/07/15 02:23:56;;;;;;;2.85;2.50;;;;;;;21.08;71.29;100992.38;6109814;28;20235;-57
2021/07/15 02:27:18;;;;;;;3.28;2.30;;;;;;;21.03;71.49;100988.16;6106211;28;20236;-58
2021/07/15 02:30:40;;;;;;;4.13;1.70;;;;;;;21.07;71.15;100987.97;6108005;28;20263;-58
2021/07/15 02:34:06;;;;;;;2.75;1.52;;;;;;;21.53;68.90;100993.63;6105389;28;20256;-58
2021/07/15 02:37:33;;;;;;;3.25;1.88;;;;;;;21.47;69.36;100994.78;6108774;28;20224;-58
2021/07/15 02:40:55;;;;;;;2.15;1.95;;;;;;;22.10;66.65;101003.84;6109023;28;20223;-59
2021/07/15 02:44:16;;;;;;;3.80;2.45;;;;;;;21.79;67.06;101008.13;6107422;28;20259;-58
2021/07/15 02:47:39;;;;;;;2.80;2.42;;;;;;;21.11;69.91;101014.25;6096900;28;20236;-54
2021/07/15 02:51:00;;;;;;;3.75;2.33;;;;;;;20.93;71.08;101021.28;6107781;28;20606;-58
2021/07/15 02:54:21;;;;;;;2.80;2.17;;;;;;;21.89;67.49;101011.16;6100004;28;20248;-58
2021/07/15 02:57:52;;;;;;;2.67;2.47;;;;;;;22.08;66.78;101006.59;6078618;28;20240;-58
2021/07/15 03:01:17;;;;;;;2.47;2.28;;;;;;;21.96;66.61;101008.09;6101058;28;20314;-56
2021/07/15 03:04:42;;;;;;;1.73;1.63;;;;;;;21.13;69.91;101014.16;6106275;28;20224;-58
2021/07/15 03:08:07;;;;;;;3.72;2.20;;;;;;;21.15;70.17;101015.81;6101443;28;20231;-57
2021/07/15 03:11:31;;;;;;;4.00;1.80;;;;;;;21.73;67.78;101016.41;6106236;28;20260;-58
2021/07/15 03:14:55;;;;;;;4.53;2.55;;;;;;;21.28;69.48;101018.69;6109903;28;20482;-58
2021/07/15 03:18:19;;;;;;;3.20;2.90;;;;;;;21.70;67.68;101024.53;6103003;28;20232;-56
2021/07/15 03:21:42;;;;;;;3.65;2.72;;;;;;;22.07;66.27;101012.81;6114777;28;20770;-57
2021/07/15 03:25:06;;;;;;;3.25;2.17;;;;;;;21.68;67.41;101000.75;6102574;28;20239;-58
2021/07/15 03:28:31;;;;;;;5.53;2.83;;;;;;;21.57;67.91;100989.88;6101705;28;20817;-57
2021/07/15 03:31:56;;;;;;;4.45;2.70;;;;;;;21.64;67.30;100993.91;6110471;28;20502;-58
2021/07/15 03:35:18;;;;;;;1.70;1.60;;;;;;;20.92;70.28;100995.78;6106993;28;20233;-58
2021/07/15 03:38:40;;;;;;;4.82;2.20;;;;;;;21.19;69.31;101008.53;6099470;28;20327;-58
2021/07/15 03:42:01;;;;;;;5.15;2.00;;;;;;;21.49;68.34;101023.84;6102803;28;20232;-58
2021/07/15 03:45:23;;;;;;;5.57;2.72;;;;;;;21.71;67.34;101019.13;6104825;28;20500;-58
2021/07/15 03:48:47;;;;;;;3.10;2.47;;;;;;;21.98;66.10;101023.91;6103756;28;20323;-59
2021/07/15 03:52:11;;;;;;;4.15;3.33;;;;;;;22.28;65.18;101026.75;6107329;28;20534;-58
2021/07/15 03:55:36;;;;;;;2.25;1.50;;;;;;;21.52;67.50;101018.38;6105401;28;20239;-59
2021/07/15 03:59:01;;;;;;;2.22;1.58;;;;;;;21.22;67.99;101026.94;6106530;28;20244;-59
2021/07/15 04:02:25;;;;;;;2.78;1.70;;;;;;;21.81;66.07;101036.28;6111887;28;20417;-58
2021/07/15 04:05:50;;;;;;;1.48;1.38;;;;;;;21.73;66.28;101035.84;6110005;28;20498;-58
2021/07/15 04:09:15;;;;;;;3.00;1.58;;;;;;;21.35;67.35;101038.63;6113154;28;20240;-58
2021/07/15 04:12:39;;;;;;;8.80;7.05;;;;;;;22.06;65.41;101034.97;6109264;28;20235;-58
2021/07/15 04:16:14;;;;;;;2.28;2.00;;;;;;;22.46;64.22;101031.97;6106381;28;20229;-58
2021/07/15 04:19:36;;;;;;;1.95;1.85;;;;;;;22.68;63.11;101028.97;6096285;28;20232;-54
2021/07/15 04:23:01;;;;;;;2.17;2.00;;;;;;;22.88;61.75;101035.81;6112527;28;20347;-57
2021/07/15 04:26:24;;;;;;;3.15;2.33;;;;;;;21.97;65.12;101035.47;6110753;28;20224;-58
2021/07/15 04:29:45;;;;;;;5.43;4.93;;;;;;;22.32;64.16;101030.09;6101362;28;20246;-56
2021/07/15 04:33:09;;;;;;;4.82;3.00;;;;;;;22.69;62.89;101028.03;6112730;28;20335;-57
2021/07/15 04:36:32;;;;;;;18.33;16.73;;;;;;;22.73;62.19;101041.03;6115247;28;20813;-58
2021/07/15 04:39:57;;;;;;;3.75;2.28;;;;;;;22.20;64.60;101042.19;6109009;28;20236;-56
2021/07/15 04:43:19;;;;;;;5.68;2.67;;;;;;;23.05;62.12;101040.16;6107982;28;20232;-57
2021/07/15 04:46:40;;;;;;;3.55;2.40;;;;;;;22.46;63.28;101043.44;6111775;28;20604;-58
2021/07/15 04:50:01;;;;;;;2.60;2.40;;;;;;;22.56;63.40;101036.66;6113774;28;20343;-58
2021/07/15 04:53:25;;;;;;;4.05;1.98;;;;;;;22.77;62.44;101034.63;6104300;28;20322;-58
2021/07/15 04:56:48;;;;;;;2.92;1.90;;;;;;;22.63;63.00;101023.09;6108494;28;20235;-59
2021/07/15 05:00:12;;;;;;;2.45;2.25;;;;;;;21.60;66.42;101029.47;6108720;28;20464;-57
2021/07/15 05:03:35;;;;;;;4.65;2.58;;;;;;;21.85;66.00;101033.47;6110074;28;20357;-59
2021/07/15 05:06:56;;;;;;;3.75;2.63;;;;;;;22.32;64.50;101038.06;6109920;28;20232;-54
2021/07/15 05:10:17;;;;;;;5.82;2.17;;;;;;;22.16;64.84;101036.19;6112225;28;20232;-58
2021/07/15 05:13:40;;;;;;;2.55;2.35;;;;;;;22.20;64.77;101043.06;6107847;28;21644;-59
2021/07/15 05:17:01;;;;;;;2.85;2.50;;;;;;;22.65;63.14;101032.66;6114784;28;20223;-55
2021/07/15 05:20:22;;;;;;;5.25;3.25;;;;;;;23.15;61.49;101030.75;6100828;28;20240;-57
2021/07/15 05:23:43;;;;;;;4.35;2.90;;;;;;;23.31;60.66;101050.13;6104202;28;20613;-58
2021/07/15 05:27:05;;;;;;;3.28;2.55;;;;;;;23.51;60.11;101048.94;6106344;28;20240;-58
2021/07/15 05:30:27;;;;;;;3.25;2.53;;;;;;;23.77;59.50;101049.19;6102794;28;20235;-54
2021/07/15 05:33:48;;;;;;;4.20;2.25;;;;;;;23.77;59.61;101042.06;6103866;28;20506;-56
2021/07/15 05:37:11;;;;;;;5.13;2.47;;;;;;;23.84;59.03;101045.22;6105626;28;20232;-55
2021/07/15 05:40:32;;;;;;;3.17;2.40;;;;;;;24.18;58.29;101044.00;6106706;28;20236;-53
2021/07/15 05:43:53;;;;;;;5.05;3.80;;;;;;;24.30;58.02;101053.03;6110726;28;20254;-57
2021/07/15 05:47:15;;;;;;;4.75;3.22;;;;;;;24.21;57.40;101047.41;6117531;28;20331;-58
2021/07/15 05:50:36;;;;;;;2.85;2.55;;;;;;;24.00;57.88;101050.50;6109016;28;20231;-59
2021/07/15 05:53:57;;;;;;;3.72;2.70;;;;;;;23.98;58.62;101057.69;6110685;28;20235;-61
2021/07/15 05:57:18;;;;;;;2.25;1.92;;;;;;;24.29;57.86;101071.72;6103953;28;20675;-58
2021/07/15 06:00:39;;;;;;;3.75;1.98;;;;;;;24.29;57.45;101069.94;6120393;28;20243;-59
2021/07/15 06:04:01;;;;;;;3.88;2.13;;;;;;;24.01;58.00;101073.47;6110418;28;20544;-59
2021/07/15 06:07:22;;;;;;;2.28;1.40;;;;;;;23.70;58.79;101085.06;6102460;28;20531;-60
2021/07/15 06:10:42;;;;;;;2.65;1.77;;;;;;;24.25;57.18;101091.50;6105058;28;20310;-60
2021/07/15 06:14:04;;;;;;;3.53;1.92;;;;;;;24.70;56.63;101097.59;6109004;28;20259;-58
2021/07/15 06:17:24;;;;;;;3.53;1.80;;;;;;;24.44;57.33;101094.72;6104795;28;20224;-57
2021/07/15 06:20:46;;;;;;;2.08;1.85;;;;;;;24.71;55.60;101099.28;6109637;28;20637;-58
2021/07/15 06:24:09;;;;;;;2.30;1.80;;;;;;;24.73;56.05;101097.38;6104274;28;20247;-58
2021/07/15 06:27:30;;;;;;;2.20;1.80;;;;;;;24.86;55.73;101103.63;6108269;28;20542;-58
2021/07/15 06:30:50;;;;;;;2.33;1.92;;;;;;;24.70;55.85;101109.09;6101403;28;20658;-59
2021/07/15 06:34:11;;;;;;;5.00;2.65;;;;;;;24.84;55.46;101110.03;6110423;28;20626;-57
2021/07/15 06:37:35;;;;;;;3.10;2.58;;;;;;;24.84;55.58;101094.88;6107827;28;20233;-58
2021/07/15 06:40:58;;;;;;;2.83;2.47;;;;;;;24.91;55.47;101101.53;6112186;28;20224;-59
2021/07/15 06:44:19;;;;;;;5.13;3.13;;;;;;;24.96;54.84;101104.72;6099605;28;20235;-60
2021/07/15 06:47:40;;;;;;;5.93;3.88;;;;;;;24.47;56.18;101110.53;6104785;28;20322;-59
2021/07/15 06:51:01;;;;;;;4.15;2.55;;;;;;;24.81;55.59;101105.72;6101982;28;20310;-60
2021/07/15 06:54:23;;;;;;;5.35;2.80;;;;;;;24.24;57.17;101108.44;6103317;28;20250;-58
2021/07/15 06:57:45;;;;;;;4.47;2.28;;;;;;;24.22;57.50;101113.00;6107086;28;20232;-54
2021/07/15 07:01:08;;;;;;;8.73;3.78;;;;;;;24.84;56.12;101118.84;6110865;28;20232;-57
2021/07/15 07:04:29;;;;;;;5.97;4.47;;;;;;;23.42;59.62;101123.03;6107983;28;20753;-59
2021/07/15 07:07:52;;;;;;;4.90;4.38;;;;;;;23.85;58.23;101118.75;6103676;28;20318;-55
2021/07/15 07:11:14;;;;;;;5.75;5.20;;;;;;;23.69;59.33;101120.56;6098019;28;20231;-56
2021/07/15 07:14:35;;;;;;;4.55;4.13;;;;;;;24.17;57.34;101126.56;6105914;28;20322;-56
2021/07/15 07:17:57;;;;;;;8.18;4.30;;;;;;;23.80;58.99;101127.94;6101558;28;20232;-59
2021/07/15 07:21:18;;;;;;;9.45;6.15;;;;;;;22.95;61.60;101130.97;6102803;28;20259;-59
2021/07/15 07:24:39;;;;;;;11.10;5.90;;;;;;;23.31;60.07;101132.50;6121415;28;20240;-59
2021/07/15 07:28:01;;;;;;;5.68;5.05;;;;;;;24.20;57.40;101128.22;6105378;28;20236;-56
2021/07/15 07:31:22;;;;;;;7.07;3.80;;;;;;;25.12;55.37;101127.72;6109917;28;20602;-59
2021/07/15 07:34:43;;;;;;;6.05;5.40;;;;;;;24.53;56.21;101128.78;6102258;28;20232;-58
2021/07/15 07:38:04;;;;;;;7.57;4.65;;;;;;;24.46;56.99;101130.09;6104910;28;20538;-57
2021/07/15 07:41:25;;;;;;;5.53;4.82;;;;;;;24.83;55.85;101143.75;6111245;28;20228;-58
2021/07/15 07:44:48;;;;;;;6.78;3.92;;;;;;;25.94;52.97;101133.88;6110359;28;20236;-57
2021/07/15 07:48:09;;;;;;;7.43;4.82;;;;;;;25.35;53.97;101139.56;6109843;28;20323;-56
2021/07/15 07:51:30;;;;;;;6.03;5.15;;;;;;;24.86;55.65;101140.91;6109786;28;20328;-59
2021/07/15 07:54:51;;;;;;;5.80;4.22;;;;;;;25.73;53.66;101133.47;6106753;28;20987;-57
2021/07/15 07:58:13;;;;;;;6.40;5.00;;;;;;;26.32;50.95;101128.50;6116639;28;20290;-58
2021/07/15 08:01:36;;;;;;;6.80;5.45;;;;;;;26.27;51.51;101132.47;6102662;28;20239;-57
2021/07/15 08:04:57;;;;;;;6.95;6.43;;;;;;;26.48;50.11;101132.75;6111877;28;20837;-59
2021/07/15 08:08:19;;;;;;;6.38;5.88;;;;;;;26.47;50.02;101137.25;6106102;28;20244;-58
2021/07/15 08:11:44;;;;;;;6.55;5.45;;;;;;;26.37;50.36;101149.53;6101730;28;20250;-58
2021/07/15 08:15:06;;;;;;;5.47;5.00;;;;;;;26.33;50.18;101140.91;6110362;28;20330;-58
2021/07/15 08:18:28;;;;;;;5.55;5.05;;;;;;;26.13;51.76;101147.63;6095806;28;20235;-59
2021/07/15 08:21:49;;;;;;;4.97;4.45;;;;;;;26.53;50.50;101146.63;6101086;28;20232;-57
2021/07/15 08:25:13;;;;;;;5.63;4.88;;;;;;;26.16;50.96;101159.91;6108199;28;20231;-58
2021/07/15 08:28:33;;;;;;;8.25;6.43;;;;;;;25.13;53.03;101164.06;6105422;28;22573;-54
2021/07/15 08:31:54;;;;;;;6.15;5.53;;;;;;;25.17;53.70;101165.59;6102428;28;20243;-56
2021/07/15 08:35:17;;;;;;;7.60;5.70;;;;;;;25.25;52.77;101167.78;6086114;28;20327;-57
2021/07/15 08:38:39;;;;;;;6.32;5.65;;;;;;;25.42;52.46;101175.53;6109307;28;20237;-58
2021/07/15 08:42:00;;;;;;;8.45;6.50;;;;;;;24.81;52.74;101180.28;6109528;28;20508;-60
2021/07/15 08:45:21;;;;;;;6.88;6.28;;;;;;;24.74;53.14;101179.00;6109648;28;20228;-57
2021/07/15 08:48:45;;;;;;;7.03;6.25;;;;;;;24.89;52.61;101162.03;6100065;28;20306;-55
2021/07/15 08:52:08;;;;;;;6.18;5.68;;;;;;;25.66;51.28;101162.34;6108315;28;20241;-57
2021/07/15 08:59:09;;;;;;;5.75;5.22;;;;;;;24.99;51.69;101159.66;6106968;28;20322;-57
2021/07/15 09:02:31;;;;;;;6.32;5.82;;;;;;;25.01;51.53;101163.06;6104533;28;20236;-55
2021/07/15 09:05:52;;;;;;;6.05;5.47;;;;;;;25.64;50.65;101156.28;6108478;28;20262;-57
2021/07/15 09:09:14;;;;;;;5.68;5.20;;;;;;;25.54;49.14;101161.38;6102900;28;20239;-58
2021/07/15 09:12:35;;;;;;;6.15;4.50;;;;;;;27.09;46.84;101159.56;6109420;28;20231;-58
2021/07/15 09:15:56;;;;;;;6.05;5.45;;;;;;;26.29;47.60;101170.59;6103751;28;23263;-52
2021/07/15 09:19:19;;;;;;;6.65;5.32;;;;;;;26.16;48.49;101154.56;6107840;28;20271;-57
2021/07/15 09:22:57;;;;;;;4.65;4.25;;;;;;;27.09;46.80;101163.09;6111498;28;20535;-54
2021/07/15 09:26:20;;;;;;;5.68;5.18;;;;;;;26.36;47.34;101169.19;6104118;28;20519;-57
2021/07/15 09:29:41;;;;;;;4.90;4.50;;;;;;;27.23;46.62;101158.53;6105395;28;20792;-58
2021/07/15 09:33:07;;;;;;;6.28;5.78;;;;;;;26.34;47.51;101160.44;6108900;28;20854;-53
2021/07/15 09:36:28;;;;;;;6.43;5.80;;;;;;;25.72;49.37;101163.75;6103358;28;20679;-57
2021/07/15 09:39:49;;;;;;;5.05;4.65;;;;;;;26.72;47.52;101164.91;6104670;28;20232;-56
2021/07/15 09:43:16;;;;;;;5.13;4.40;;;;;;;26.46;47.94;101162.25;6108249;28;20243;-55
2021/07/15 09:46:38;;;;;;;5.95;5.15;;;;;;;27.23;45.98;101163.88;6106774;28;20243;-57
2021/07/15 09:49:59;;;;;;;4.93;4.20;;;;;;;27.88;44.58;101168.00;6104868;28;20318;-57
2021/07/15 09:53:22;;;;;;;4.63;4.32;;;;;;;28.00;44.60;101166.19;6106862;28;20686;-57
2021/07/15 09:56:45;;;;;;;5.38;4.88;;;;;;;28.12;44.83;101161.72;6113774;28;20251;-57
2021/07/15 10:00:09;;;;;;;5.05;4.03;;;;;;;28.85;42.39;101166.59;6104992;28;20263;-59
2021/07/15 10:03:34;;;;;;;4.97;4.50;;;;;;;28.75;42.21;101171.00;6112345;28;20240;-53
2021/07/15 10:06:57;;;;;;;4.97;4.55;;;;;;;28.15;44.43;101185.53;6119014;28;20219;-58
2021/07/15 10:10:20;;;;;;;59.20;54.70;;;;;;;28.57;43.88;101183.19;6101839;28;20737;-57
2021/07/15 10:13:41;;;;;;;7.35;6.75;;;;;;;28.46;43.02;101184.88;6110592;28;20235;-59
2021/07/15 10:17:05;;;;;;;7.20;6.50;;;;;;;28.56;43.54;101186.84;6114387;28;20239;-59
2021/07/15 10:20:26;;;;;;;5.13;4.72;;;;;;;28.96;42.95;101183.63;6109106;28;20236;-58
2021/07/15 10:23:48;;;;;;;5.75;4.90;;;;;;;28.89;43.27;101185.97;6108778;28;20323;-55
2021/07/15 10:27:10;;;;;;;6.40;5.30;;;;;;;28.49;44.76;101167.69;6101889;28;20243;-57
2021/07/15 10:30:32;;;;;;;4.82;4.43;;;;;;;28.88;43.71;101172.69;6111217;28;20236;-56
2021/07/15 10:33:55;;;;;;;4.53;4.22;;;;;;;28.72;43.50;101173.91;6104274;28;20228;-60
2021/07/15 10:37:16;;;;;;;5.80;5.30;;;;;;;29.02;42.73;101175.09;6100383;28;20231;-57
2021/07/15 10:40:38;;;;;;;5.28;4.88;;;;;;;28.99;42.64;101165.47;6104556;28;20232;-57
2021/07/15 10:43:59;;;;;;;5.97;5.00;;;;;;;28.75;43.36;101175.50;6107931;28;20235;-57
2021/07/15 10:47:21;;;;;;;5.50;4.95;;;;;;;29.52;41.36;101167.41;6103010;28;20232;-54
2021/07/15 10:50:44;;;;;;;6.15;5.30;;;;;;;29.69;42.49;101157.94;6109557;28;20232;-57
2021/07/15 10:54:07;;;;;;;5.57;5.15;;;;;;;29.91;42.05;101156.97;6113319;28;20240;-55
2021/07/15 10:57:28;;;;;;;6.00;5.50;;;;;;;28.44;43.58;101159.16;6111372;28;20236;-56
2021/07/15 11:00:50;;;;;;;5.55;5.05;;;;;;;28.65;43.82;101170.03;6112816;28;20622;-57
2021/07/15 11:04:13;;;;;;;5.68;5.13;;;;;;;28.74;42.31;101169.28;6107350;28;20243;-57
2021/07/15 11:07:38;;;;;;;5.10;4.70;;;;;;;29.44;42.09;101167.19;6111411;28;20227;-57
2021/07/15 11:11:00;;;;;;;5.03;4.63;;;;;;;29.21;41.49;101169.94;6103988;28;20256;-57
2021/07/15 11:14:40;;;;;;;6.60;6.00;;;;;;;28.98;43.07;101173.63;6108555;28;20320;-58
2021/07/15 11:18:01;;;;;;;6.90;5.60;;;;;;;27.35;46.40;101170.19;6110026;28;20617;-58
2021/07/15 11:21:33;;;;;;;6.32;5.82;;;;;;;26.87;47.60;101182.50;6111993;28;20240;-58
2021/07/15 11:25:03;;;;;;;6.45;5.65;;;;;;;27.75;45.35;101181.41;6119897;28;20227;-55
2021/07/15 11:28:24;;;;;;;6.82;6.18;;;;;;;27.48;46.06;101182.50;6103442;28;20246;-58
2021/07/15 11:31:47;;;;;;;6.30;5.82;;;;;;;28.84;43.76;101194.38;6114563;28;20236;-58
2021/07/15 11:35:32;;;;;;;7.93;5.15;;;;;;;29.49;41.99;101193.63;6112780;28;20227;-56
2021/07/15 11:38:59;;;;;;;7.32;6.03;;;;;;;29.50;41.81;101190.81;6113756;28;20236;-55
2021/07/15 11:42:21;;;;;;;6.50;5.97;;;;;;;29.38;41.96;101197.22;6109733;28;20523;-58
2021/07/15 11:46:11;;;;;;;6.32;5.82;;;;;;;29.82;42.08;101196.22;6089589;28;20330;-59
2021/07/15 11:49:42;;;;;;;5.45;5.05;;;;;;;30.66;39.66;101197.97;6103119;28;20236;-58
2021/07/15 11:53:17;;;;;;;4.20;3.80;;;;;;;31.00;38.84;101192.31;6110235;28;20235;-56
2021/07/15 11:56:37;;;;;;;6.53;5.90;;;;;;;30.26;39.78;101193.34;6107296;28;20231;-57
2021/07/15 12:00:15;;;;;;;5.53;5.00;;;;;;;30.75;39.21;101191.78;6107459;28;20827;-57
2021/07/15 12:03:36;;;;;;;5.43;5.03;;;;;;;31.17;39.09;101188.09;6107439;28;20232;-58
2021/07/15 12:06:57;;;;;;;5.50;5.03;;;;;;;31.54;37.95;101191.00;6113198;28;20366;-58
2021/07/15 12:10:24;;;;;;;5.22;4.65;;;;;;;31.47;38.98;101195.25;6105966;28;20236;-54
2021/07/15 12:13:49;;;;;;;5.00;4.60;;;;;;;31.77;38.07;101185.28;6109057;28;20574;-55
2021/07/15 12:17:12;;;;;;;5.45;4.97;;;;;;;31.79;35.93;101184.19;6108558;28;20232;-50
2021/07/15 12:20:38;;;;;;;5.28;4.90;;;;;;;31.65;35.97;101183.75;6118586;28;20554;-53
2021/07/15 12:24:09;;;;;;;4.80;4.30;;;;;;;32.48;37.15;101178.63;6105176;28;20259;-51
2021/07/15 12:27:39;;;;;;;6.00;5.50;;;;;;;30.19;39.12;101186.84;6105914;28;20587;-49
2021/07/15 12:31:02;;;;;;;6.57;6.07;;;;;;;30.60;39.13;101185.09;6114869;28;20262;-49
2021/07/15 12:34:28;;;;;;;5.53;5.05;;;;;;;31.48;38.55;101180.78;6109482;28;20236;-51
2021/07/15 12:37:49;;;;;;;6.45;5.65;;;;;;;31.50;38.91;101180.63;6112897;28;20235;-52
2021/07/15 12:41:16;;;;;;;5.55;5.15;;;;;;;31.59;37.51;101182.50;6108380;28;20707;-48
2021/07/15 12:44:36;;;;;;;5.10;4.70;;;;;;;31.40;38.14;101180.59;6110754;28;20234;-52
2021/07/15 12:48:01;;;;;;;5.80;5.40;;;;;;;29.32;41.65;101192.38;6111772;28;20271;-51
2021/07/15 12:51:27;;;;;;;6.55;6.05;;;;;;;29.10;42.30;101188.75;6114564;28;20231;-51
2021/07/15 12:54:54;;;;;;;6.15;5.65;;;;;;;29.53;41.64;101185.22;6109016;28;20236;-55
2021/07/15 12:58:15;;;;;;;5.50;4.90;;;;;;;31.14;39.29;101186.53;6100263;28;20228;-62
2021/07/15 13:01:38;;;;;;;8.13;4.93;;;;;;;32.37;38.16;101176.97;6102447;28;20223;-63
2021/07/15 13:04:59;;;;;;;5.95;5.43;;;;;;;31.55;39.20;101181.91;6108350;28;20574;-62
2021/07/15 13:08:28;;;;;;;6.00;5.40;;;;;;;32.25;37.50;101175.47;6107938;28;20236;-67
2021/07/15 13:15:33;;;;;;;6.60;5.97;;;;;;;35.72;30.32;101179.53;6101500;28;20247;-65
2021/07/15 13:18:54;;;;;;;6.88;5.55;;;;;;;36.49;29.28;101180.88;6105091;28;20308;-65
2021/07/15 13:22:17;;;;;;;5.63;5.13;;;;;;;36.38;29.35;101179.41;6110926;28;20236;-64
2021/07/15 13:25:45;;;;;;;5.85;5.45;;;;;;;35.67;30.33;101181.88;6109201;28;20567;-64
2021/07/15 13:29:09;;;;;;;7.00;6.25;;;;;;;37.87;27.16;101180.22;6109416;28;20616;-66
2021/07/15 13:32:31;;;;;;;5.22;4.68;;;;;;;39.92;24.60;101175.56;6104523;28;20513;-67
2021/07/15 13:35:53;;;;;;;6.25;4.40;;;;;;;41.41;22.71;101178.72;6107895;28;20267;-48
2021/07/15 13:39:14;;;;;;;5.00;4.53;;;;;;;39.27;24.40;101173.91;6107271;28;20229;-52
2021/07/15 13:42:37;;;;;;;4.65;4.25;;;;;;;36.99;27.10;101172.38;6109576;28;20247;-54
2021/07/15 13:46:01;;;;;;;4.38;3.85;;;;;;;37.41;27.97;101164.81;6106386;28;20674;-51
2021/07/15 13:49:22;;;;;;;3.78;3.58;;;;;;;37.51;28.13;101154.53;6109126;28;20878;-53
2021/07/15 13:52:43;;;;;;;8.00;7.38;;;;;;;35.24;31.04;101148.69;6106225;28;20315;-51
2021/07/15 13:56:06;;;;;;;7.25;4.95;;;;;;;33.51;33.62;101153.16;6122613;28;20239;-51
2021/07/15 13:59:29;;;;;;;5.75;5.07;;;;;;;34.14;33.40;101159.38;6093825;28;20561;-54
2021/07/15 14:02:52;;;;;;;5.68;4.63;;;;;;;35.86;29.89;101146.31;6114459;28;20235;-53
2021/07/15 14:06:15;;;;;;;5.32;4.93;;;;;;;34.53;31.39;101150.81;6102314;28;21440;-54
2021/07/15 14:09:36;;;;;;;4.70;4.40;;;;;;;33.28;34.80;101155.47;6106557;28;20363;-51
2021/07/15 14:12:59;;;;;;;5.13;4.63;;;;;;;33.33;33.60;101149.66;6102609;28;20231;-52
2021/07/15 14:16:29;;;;;;;6.90;5.75;;;;;;;33.55;34.53;101149.13;6102687;28;20263;-50
2021/07/15 14:19:50;;;;;;;6.35;4.53;;;;;;;33.16;34.94;101148.63;6107878;28;20310;-50
2021/07/15 14:23:15;;;;;;;7.20;5.40;;;;;;;33.93;33.43;101147.09;6102007;28;20228;-51
2021/07/15 14:26:36;;;;;;;5.00;4.47;;;;;;;34.55;32.07;101148.81;6100109;28;20240;-54
2021/07/15 14:29:57;;;;;;;4.53;4.10;;;;;;;34.59;32.46;101152.88;6113197;28;20236;-51
2021/07/15 14:33:19;;;;;;;4.13;3.83;;;;;;;34.35;32.56;101153.59;6101652;28;20240;-52
2021/07/15 14:36:40;;;;;;;4.43;3.92;;;;;;;33.19;34.19;101166.34;6102408;28;20244;-49
2021/07/15 14:40:02;;;;;;;4.97;4.57;;;;;;;32.93;34.62;101180.56;6104116;28;20671;-50
2021/07/15 14:43:23;;;;;;;4.45;4.05;;;;;;;32.71;35.08;101174.59;6107284;28;20607;-52
2021/07/15 14:46:44;;;;;;;4.38;4.07;;;;;;;32.42;36.29;101163.06;6107013;28;20236;-52
2021/07/15 14:50:07;;;;;;;4.13;3.83;;;;;;;31.93;36.32;101164.03;6109825;28;20307;-54
2021/07/15 14:53:27;;;;;;;4.85;4.45;;;;;;;31.81;37.54;101159.78;6104958;28;20266;-52
2021/07/15 14:56:48;;;;;;;5.88;4.30;;;;;;;32.07;37.26;101153.81;6108442;28;20243;-52
2021/07/15 15:00:11;;;;;;;5.07;4.68;;;;;;;32.75;36.41;101165.19;6111358;28;20614;-53
2021/07/15 15:03:32;;;;;;;5.55;5.15;;;;;;;33.11;35.91;101149.09;6100859;28;20244;-54
2021/07/15 15:06:54;;;;;;;4.63;4.10;;;;;;;33.26;36.00;101156.66;6115899;28;20235;-51
2021/07/15 15:10:16;;;;;;;5.32;4.93;;;;;;;33.50;34.63;101148.78;6105068;28;20225;-50
2021/07/15 15:13:37;;;;;;;3.72;3.53;;;;;;;33.26;35.50;101151.25;6102020;28;20248;-48
2021/07/15 15:16:58;;;;;;;6.35;4.88;;;;;;;32.99;35.44;101157.53;6103525;28;20243;-49
2021/07/15 15:20:19;;;;;;;5.45;4.38;;;;;;;30.85;37.74;101146.13;6107992;28;20239;-52
2021/07/15 15:23:41;;;;;;;6.43;5.82;;;;;;;30.51;38.73;101146.41;6108732;28;20584;-52
2021/07/15 15:27:03;;;;;;;4.65;4.35;;;;;;;31.98;38.02;101150.97;6112324;28;20240;-52
2021/07/15 15:30:23;;;;;;;5.65;5.10;;;;;;;32.56;37.45;101149.13;6110714;28;20243;-53
2021/07/15 15:33:45;;;;;;;4.40;4.10;;;;;;;32.78;35.66;101139.75;6107704;28;20239;-50
2021/07/15 15:37:05;;;;;;;5.78;4.93;;;;;;;32.98;34.05;101132.41;6106770;28;20253;-51
2021/07/15 15:40:28;;;;;;;5.18;4.78;;;;;;;33.54;34.63;101125.88;6105928;28;20231;-51
2021/07/15 15:43:49;;;;;;;5.85;5.35;;;;;;;33.70;33.65;101121.63;6105461;28;20252;-53
2021/07/15 15:47:13;;;;;;;5.03;4.55;;;;;;;33.50;32.61;101135.28;6105301;28;20236;-53
2021/07/15 15:50:34;;;;;;;5.07;4.60;;;;;;;33.86;33.29;101124.41;6106949;28;20236;-53